Aledo, IL

2:55 PM CDT on August 27, 2014 (GMT -0500)
Quad-City International | Change Station
CLOSE
Current Station
Airport
Location: Moline,
Elevation: 594 ft
Nearby Weather Stations

Elev 594 ft 41.45 °N, 90.51 °W | Updated 1 hour ago

Mostly Cloudy
Mostly Cloudy
79 °F
Feels Like 79 °F
N
4
Wind Variable Wind from NNW

Today
High -- | Low -- °F
--% Chance of Precip.
Yesterday
High -- | Low -- °F
Precip. -- in
6:24 AM 7:43 PM
Waxing Crescent, 5% visible
Pressure 30.16 in
Visibility 10.0 miles
Clouds Mostly Cloudy 10000 ft
Dew Point 63 °F
Humidity 57%
Rainfall 0.00 in
Snow Depth Not available.
UV 5 out of 12
Pollen 8.70 out of 12
Air Quality Not available.
Flu Activity Not available.
METAR KMLI 271852Z 34003KT 10SM BKN100 26/17 A3016

More Conditions Fewer Conditions

Pressure 30.16 in
Visibility 10.0 miles
Clouds Mostly Cloudy 10000 ft
Dew Point 63 °F
Humidity 57%
Rainfall 0.00 in
Snow Depth Not available.
UV 5 out of 12
Pollen 8.70 out of 12
Air Quality Not available.
Flu Activity Not available.
METAR KMLI 271852Z 34003KT 10SM BKN100 26/17 A3016

More Conditions Fewer Conditions

10-Day Weather Forecast

Almanac

Astronomy

Aug. 27, 2014 Rise Set
Actual Time 6:24 AM CDT 7:43 PM CDT
Civil Twilight 5:55 AM CDT 8:12 PM CDT
Nautical Twilight 5:21 AM CDT 8:46 PM CDT
Astronomical Twilight 4:45 AM CDT 9:22 PM CDT
Moon 8:22 AM CDT 8:34 PM CDT
Length of Visible Light 14h 16m
Length of Day
13h 19m
Tomorrow will be 2m 35s shorter.
Waxing Crescent, 5% of the Moon is Illuminated
Today
Waxing Crescent
Sep 2
First Quarter
Sep 8
Full
Sep 15
Last Quarter
Sep 24
New

Today's Extremes

State Highs State Lows

Community

WunderPhotos

Upload Photos

1,747,771 photos uploaded!

Nearby

Snow Depth

Station Depth Elevation
No new snow has been reported.

Earthquake Activity

City Distance Mag. Time & Date
No recent earthquake activity has been reported nearby.
Minimum magnitude displayed is 2.5.

Coastal Water Temperatures

Place Temperature
No Stations Reporting

Nearby Weather Stations